Flight Number: AVA4185 Duration: 2:00
Departure: Chengdu Shuangliu Intl (ZUUU) at 06:30 Distance: 841.149 Nm
Arrival: Beijing Capital Intl Airport (ZBAA) at 08:30 Equipment: A321

Weather Information
Chengdu, China (ZUUU) 30-40N 104-01E 508M Feb 27, 2024 - 12:00 PM EST / 2024.02.27 1700 UTC
Wind: from the N (350 degrees) at 4 MPH (4 KT):0
Visibility: 3 mile(s):0
Sky conditions: mostly cloudy Weather: mist Temperature: 44 F (7 C) Dew Point: 39 F (4 C) Relative Humidity: 81% Pressure (altimeter): 30.21 in. Hg (1023 hPa)
ob: ZUUU 271700Z 35002MPS 5000 BR BKN040 07/04 Q1023 NOSIG cycle: 17
Sunrise: 23:35 Sunset: 10:58 (UTC)

Beijing, China (ZBAA) 39-56N 116-17E 55M Feb 27, 2024 - 12:00 PM EST / 2024.02.27 1700 UTC
Wind: from the SSE (150 degrees) at 2 MPH (2 KT):0
Visibility: greater than 7 mile(s):0 Temperature: 26 F (-3 C) Dew Point: 17 F (-8 C) Relative Humidity: 68% Pressure (altimeter): 30.36 in. Hg (1028 hPa)
ob: ZBAA 271700Z 15001MPS CAVOK M03/M08 Q1028 NOSIG cycle: 17
Sunrise: 22:53 Sunset: 09:59 (UTC)

TAF:2024/02/27 18:03 TAF TAF ZBAA 271501Z 2718/2818 33003MPS 3500 BR NSC TX06/2807Z TNM03/2721Z

Previous Pireps for this route
Date Flightnr Aircraft Flight time Fuel used Landing rate On time
2017-06-10AVA4185A32102.1613424-92Yes
2018-03-24AVA4185A32102.1613543-189Yes
(pireps marked green are flown by you)

Route map